createdAt,value
2023-05-20T00:00:45.989Z,100494.41
2023-05-20T00:03:12.738Z,100497.66
2023-05-20T00:05:39.890Z,100516.38
2023-05-20T00:08:09.681Z,100512.28
2023-05-20T00:10:36.522Z,100507.38
2023-05-20T00:13:03.429Z,100521.53
2023-05-20T00:15:32.086Z,100510.44
2023-05-20T00:18:03.238Z,100505.72
2023-05-20T00:20:32.221Z,100510.06
2023-05-20T00:23:00.349Z,100497.97
2023-05-20T00:25:27.406Z,100478.25
2023-05-20T00:27:54.040Z,100488.88
2023-05-20T00:30:21.840Z,100475.25
2023-05-20T00:32:48.654Z,100467.06
2023-05-20T00:35:16.565Z,100473.19
2023-05-20T00:37:43.676Z,100469.31
2023-05-20T00:40:11.713Z,100460.59
2023-05-20T00:42:39.196Z,100473.97
2023-05-20T00:45:06.528Z,100483.34
2023-05-20T00:47:36.682Z,100475.78
2023-05-20T00:50:05.560Z,100473.09
2023-05-20T00:52:33.241Z,100478.00
2023-05-20T00:55:01.514Z,100464.75
2023-05-20T00:57:30.240Z,100474.72
2023-05-20T00:59:57.133Z,100474.72
2023-05-20T01:02:24.117Z,100457.28
2023-05-20T01:04:51.066Z,100462.59
2023-05-20T01:07:19.327Z,100458.38
2023-05-20T01:09:46.282Z,100460.94
2023-05-20T01:12:25.257Z,100455.53
2023-05-20T01:15:00.481Z,100457.50
2023-05-20T01:17:31.279Z,100448.25
2023-05-20T01:19:59.958Z,100444.63
2023-05-20T01:22:31.330Z,100440.97
2023-05-20T01:24:57.972Z,100424.44
2023-05-20T01:27:25.970Z,100406.03
2023-05-20T01:29:53.206Z,100381.56
2023-05-20T01:32:27.932Z,100392.91
2023-05-20T01:34:56.029Z,100368.56
2023-05-20T01:37:25.413Z,100358.84
2023-05-20T01:39:53.828Z,100375.34
2023-05-20T01:42:22.575Z,100371.44
2023-05-20T01:44:49.458Z,100368.34
2023-05-20T01:47:16.149Z,100364.72
2023-05-20T01:49:42.854Z,100363.00
2023-05-20T01:52:09.536Z,100369.88
2023-05-20T01:54:37.668Z,100360.78
2023-05-20T01:57:04.970Z,100388.19
2023-05-20T01:59:32.885Z,100356.94
2023-05-20T02:01:59.630Z,100365.94
2023-05-20T02:04:26.361Z,100368.81
2023-05-20T02:06:53.066Z,100365.44
2023-05-20T02:09:19.795Z,100366.00
2023-05-20T02:11:46.468Z,100401.75
2023-05-20T02:14:13.217Z,100409.03
2023-05-20T02:16:39.924Z,100390.94
2023-05-20T02:19:12.819Z,100399.88
2023-05-20T02:21:42.609Z,100365.34
2023-05-20T02:24:10.649Z,100359.53
2023-05-20T02:26:37.274Z,100353.00
2023-05-20T02:29:05.188Z,100334.69
2023-05-20T02:31:33.004Z,100341.19
2023-05-20T02:33:59.747Z,100350.66
2023-05-20T02:36:29.196Z,100346.00
2023-05-20T02:38:58.177Z,100352.66
2023-05-20T02:41:24.863Z,100333.28
2023-05-20T02:43:51.526Z,100330.41
2023-05-20T02:46:19.753Z,100323.81
2023-05-20T02:48:46.448Z,100307.75
2023-05-20T02:51:14.497Z,100303.44
2023-05-20T02:53:42.333Z,100290.97
2023-05-20T02:56:11.402Z,100284.06
2023-05-20T02:58:38.780Z,100279.63
2023-05-20T03:01:05.668Z,100252.19
2023-05-20T03:03:32.549Z,100264.34
2023-05-20T03:05:59.361Z,100250.03
2023-05-20T03:08:26.049Z,100244.22
2023-05-20T03:10:52.679Z,100245.78
2023-05-20T03:13:20.466Z,100247.09
2023-05-20T03:15:47.247Z,100250.94
2023-05-20T03:18:14.059Z,100223.66
2023-05-20T03:20:41.671Z,100216.16
2023-05-20T03:23:09.708Z,100214.50
2023-05-20T03:25:37.563Z,100222.63
2023-05-20T03:28:05.640Z,100214.91
2023-05-20T03:30:34.388Z,100215.19
2023-05-20T03:33:03.045Z,100213.06
2023-05-20T03:35:31.273Z,100224.44
2023-05-20T03:37:59.624Z,100236.78
2023-05-20T03:40:27.532Z,100234.66
2023-05-20T03:42:54.256Z,100237.09
2023-05-20T03:45:21.133Z,100235.47
2023-05-20T03:47:47.819Z,100225.53
2023-05-20T03:50:14.609Z,100216.91
2023-05-20T03:52:41.281Z,100194.22
2023-05-20T03:55:08.337Z,100195.91
2023-05-20T03:57:36.720Z,100189.94
2023-05-20T04:00:10.201Z,100177.81
2023-05-20T04:02:38.915Z,100184.56
2023-05-20T04:05:09.973Z,100172.66
2023-05-20T04:07:38.033Z,100161.31
2023-05-20T04:10:05.527Z,100167.81
2023-05-20T04:12:32.768Z,100145.63
2023-05-20T04:15:01.397Z,100130.97
2023-05-20T04:17:31.636Z,100154.78
2023-05-20T04:20:00.145Z,100141.22
2023-05-20T04:22:27.570Z,100142.78
2023-05-20T04:24:55.614Z,100150.41
2023-05-20T04:27:22.265Z,100145.97
2023-05-20T04:29:50.253Z,100161.66
2023-05-20T04:32:19.164Z,100159.47
2023-05-20T04:34:48.134Z,100165.31
2023-05-20T04:37:14.804Z,100177.78
2023-05-20T04:39:44.920Z,100172.81
2023-05-20T04:42:11.678Z,100193.06
2023-05-20T04:44:38.694Z,100195.75
2023-05-20T04:47:08.049Z,100191.56
2023-05-20T04:49:34.744Z,100195.34
2023-05-20T04:52:01.392Z,100194.69
2023-05-20T04:54:29.152Z,100207.84
2023-05-20T04:56:58.200Z,100216.53
2023-05-20T04:59:25.029Z,100218.84
2023-05-20T05:01:51.828Z,100243.84
2023-05-20T05:04:18.747Z,100261.38
2023-05-20T05:06:45.463Z,100266.91
2023-05-20T05:09:14.990Z,100290.28
2023-05-20T05:11:41.708Z,100299.81
2023-05-20T05:14:08.400Z,100338.41
2023-05-20T05:16:35.156Z,100357.28
2023-05-20T05:19:02.078Z,100387.63
2023-05-20T05:21:30.289Z,100400.72
2023-05-20T05:23:59.252Z,100409.47
2023-05-20T05:26:27.915Z,100423.25
2023-05-20T05:28:55.313Z,100447.94
2023-05-20T05:31:22.188Z,100471.38
2023-05-20T05:33:49.008Z,100490.53
2023-05-20T05:36:16.838Z,100496.50
2023-05-20T05:38:45.638Z,100495.69
2023-05-20T05:41:12.330Z,100509.38
2023-05-20T05:43:39.022Z,100528.22
2023-05-20T05:46:06.029Z,100516.13
2023-05-20T05:48:32.888Z,100533.19
2023-05-20T05:50:59.536Z,100542.75
2023-05-20T05:53:26.312Z,100561.00
2023-05-20T05:55:54.480Z,100550.00
2023-05-20T05:58:21.332Z,100557.84
2023-05-20T06:00:51.617Z,100576.16
2023-05-20T06:03:18.786Z,100598.13
2023-05-20T06:05:47.402Z,100601.69
2023-05-20T06:08:14.267Z,100602.50
2023-05-20T06:10:41.023Z,100606.69
2023-05-20T06:13:07.786Z,100634.88
2023-05-20T06:15:34.765Z,100640.09
2023-05-20T06:18:01.709Z,100655.91
2023-05-20T06:20:28.456Z,100677.19
2023-05-20T06:22:56.401Z,100694.84
2023-05-20T06:25:24.256Z,100713.19
2023-05-20T06:27:51.237Z,100728.81
2023-05-20T06:30:19.401Z,100740.06
2023-05-20T06:32:46.739Z,100750.31
2023-05-20T06:35:13.511Z,100750.66
2023-05-20T06:37:40.366Z,100763.50
2023-05-20T06:40:07.652Z,100772.84
2023-05-20T06:42:34.311Z,100769.09
2023-05-20T06:45:00.974Z,100765.94
2023-05-20T06:47:27.704Z,100771.63
2023-05-20T06:49:54.370Z,100773.63
2023-05-20T06:52:21.017Z,100782.75
2023-05-20T06:54:48.918Z,100777.66
2023-05-20T06:57:16.215Z,100786.28
2023-05-20T06:59:42.890Z,100795.41
2023-05-20T07:02:11.274Z,100793.03
2023-05-20T07:04:38.050Z,100797.09
2023-05-20T07:07:04.788Z,100799.94
2023-05-20T07:09:32.591Z,100804.53
2023-05-20T07:11:59.329Z,100803.34
2023-05-20T07:14:27.188Z,100802.91
2023-05-20T07:16:55.145Z,100800.25
2023-05-20T07:19:21.831Z,100801.59
2023-05-20T07:21:50.114Z,100813.34
2023-05-20T07:24:17.648Z,100815.94
2023-05-20T07:26:44.593Z,100813.06
2023-05-20T07:29:11.388Z,100820.56
2023-05-20T07:31:39.655Z,100818.16
2023-05-20T07:34:06.692Z,100825.03
2023-05-20T07:36:33.436Z,100834.22
2023-05-20T07:39:04.244Z,100834.47
2023-05-20T07:41:31.972Z,100828.56
2023-05-20T07:43:58.657Z,100830.88
2023-05-20T07:46:25.534Z,100827.53
2023-05-20T07:48:52.306Z,100829.19
2023-05-20T07:51:19.120Z,100830.97
2023-05-20T07:53:45.825Z,100832.13
2023-05-20T07:56:13.714Z,100834.88
2023-05-20T07:58:43.842Z,100835.22
2023-05-20T08:01:10.550Z,100826.22
2023-05-20T08:03:37.401Z,100831.06
2023-05-20T08:06:04.354Z,100832.22
2023-05-20T08:08:31.012Z,100830.41
2023-05-20T08:10:59.100Z,100826.88
2023-05-20T08:13:25.737Z,100823.34
2023-05-20T08:15:54.927Z,100830.28
2023-05-20T08:18:22.246Z,100822.88
2023-05-20T08:20:48.983Z,100836.13
2023-05-20T08:23:15.737Z,100835.63
2023-05-20T08:25:42.433Z,100839.19
2023-05-20T08:28:10.703Z,100846.63
2023-05-20T08:30:37.362Z,100846.63
2023-05-20T08:33:05.987Z,100847.91
2023-05-20T08:35:32.885Z,100844.69
2023-05-20T08:38:00.877Z,100839.47
2023-05-20T08:40:27.812Z,100841.41
2023-05-20T08:42:55.139Z,100846.69
2023-05-20T08:45:26.548Z,100854.28
2023-05-20T08:47:53.810Z,100847.59
2023-05-20T08:50:22.225Z,100854.41
2023-05-20T08:52:50.630Z,100842.84
2023-05-20T08:55:54.102Z,100844.84
2023-05-20T08:58:22.212Z,100849.63
2023-05-20T09:00:49.727Z,100857.03
2023-05-20T09:03:16.437Z,100849.09
2023-05-20T09:05:43.239Z,100853.44
2023-05-20T09:08:11.885Z,100856.00
2023-05-20T09:10:41.889Z,100854.63
2023-05-20T09:13:11.220Z,100853.97
2023-05-20T09:15:39.086Z,100844.44
2023-05-20T09:18:09.260Z,100856.56
2023-05-20T09:20:37.727Z,100845.78
2023-05-20T09:23:06.612Z,100844.44
2023-05-20T09:25:35.335Z,100842.94
2023-05-20T09:28:05.862Z,100841.09
2023-05-20T09:30:33.212Z,100840.28
2023-05-20T09:33:01.746Z,100835.38
2023-05-20T09:35:28.659Z,100840.72
2023-05-20T09:37:58.075Z,100835.69
2023-05-20T09:40:29.033Z,100833.41
2023-05-20T09:43:12.441Z,100836.41
2023-05-20T09:45:39.773Z,100828.75
2023-05-20T09:48:10.890Z,100827.94
2023-05-20T09:50:38.489Z,100829.75
2023-05-20T09:53:06.603Z,100832.78
2023-05-20T09:55:35.497Z,100831.41
2023-05-20T09:58:03.575Z,100824.06
2023-05-20T10:00:30.816Z,100819.16
2023-05-20T10:02:58.465Z,100816.06
2023-05-20T10:05:33.495Z,100811.47
2023-05-20T10:08:25.993Z,100817.91
2023-05-20T10:10:56.991Z,100806.75
2023-05-20T10:13:55.569Z,100818.72
2023-05-20T10:16:40.750Z,100819.78
2023-05-20T10:19:27.384Z,100818.16
2023-05-20T10:22:09.390Z,100809.41
2023-05-20T10:24:38.352Z,100808.94
2023-05-20T10:27:09.244Z,100820.72
2023-05-20T10:29:45.124Z,100808.31
2023-05-20T10:32:11.973Z,100804.41
2023-05-20T10:34:49.438Z,100804.22
2023-05-20T10:37:28.079Z,100806.16
2023-05-20T10:40:10.505Z,100804.63
2023-05-20T10:42:37.661Z,100804.44
2023-05-20T10:45:05.338Z,100796.97
2023-05-20T10:47:32.461Z,100798.91
2023-05-20T10:49:59.379Z,100788.53
2023-05-20T10:52:26.201Z,100790.97
2023-05-20T10:54:57.667Z,100798.25
2023-05-20T10:57:27.729Z,100779.38
2023-05-20T10:59:55.224Z,100780.31
2023-05-20T11:02:27.304Z,100774.31
2023-05-20T11:04:59.485Z,100764.88
2023-05-20T11:07:32.071Z,100760.28
2023-05-20T11:10:00.629Z,100757.28
2023-05-20T11:12:28.194Z,100761.88
2023-05-20T11:14:55.355Z,100756.13
2023-05-20T11:17:23.196Z,100757.03
2023-05-20T11:19:50.979Z,100752.66
2023-05-20T11:22:17.754Z,100753.81
2023-05-20T11:24:44.446Z,100743.75
2023-05-20T11:27:11.142Z,100737.06
2023-05-20T11:29:38.877Z,100739.66
2023-05-20T11:32:07.409Z,100732.50
2023-05-20T11:34:38.359Z,100736.22
2023-05-20T11:37:09.643Z,100728.00
2023-05-20T11:39:37.658Z,100736.22
2023-05-20T11:42:06.252Z,100730.41
2023-05-20T11:44:33.268Z,100722.78
2023-05-20T11:47:05.049Z,100723.22
2023-05-20T11:49:40.062Z,100719.69
2023-05-20T11:52:09.226Z,100716.38
2023-05-20T11:54:36.526Z,100710.84
2023-05-20T11:57:05.691Z,100706.41
2023-05-20T11:59:33.723Z,100716.78
2023-05-20T12:02:00.361Z,100707.31
2023-05-20T12:04:27.361Z,100711.50
2023-05-20T12:06:54.019Z,100709.19
2023-05-20T12:09:20.684Z,100701.09
2023-05-20T12:11:47.368Z,100709.03
2023-05-20T12:14:14.094Z,100706.09
2023-05-20T12:16:40.900Z,100696.84
2023-05-20T12:19:08.816Z,100693.09
2023-05-20T12:21:35.687Z,100693.28
2023-05-20T12:24:05.298Z,100692.31
2023-05-20T12:26:33.642Z,100696.66
2023-05-20T12:29:00.355Z,100693.47
2023-05-20T12:31:28.144Z,100690.50
2023-05-20T12:33:54.845Z,100688.38
2023-05-20T12:36:21.534Z,100683.31
2023-05-20T12:38:48.202Z,100681.84
2023-05-20T12:41:14.996Z,100682.28
2023-05-20T12:43:41.666Z,100695.16
2023-05-20T12:46:08.733Z,100674.97
2023-05-20T12:48:35.655Z,100675.06
2023-05-20T12:51:02.416Z,100674.03
2023-05-20T12:53:29.058Z,100669.19
2023-05-20T12:55:55.845Z,100656.63
2023-05-20T12:58:26.250Z,100663.16
2023-05-20T13:00:54.333Z,100660.81
2023-05-20T13:03:21.223Z,100653.88
2023-05-20T13:05:47.987Z,100647.41
2023-05-20T13:08:14.969Z,100651.78
2023-05-20T13:10:41.851Z,100645.91
2023-05-20T13:13:08.513Z,100648.44
2023-05-20T13:15:37.062Z,100646.59
2023-05-20T13:18:07.448Z,100642.72
2023-05-20T13:20:34.873Z,100645.03
2023-05-20T13:23:01.911Z,100641.97
2023-05-20T13:25:29.158Z,100635.81
2023-05-20T13:27:56.063Z,100636.78
2023-05-20T13:30:22.723Z,100632.09
2023-05-20T13:32:50.949Z,100621.88
2023-05-20T13:35:19.402Z,100626.09
2023-05-20T13:37:47.378Z,100619.19
2023-05-20T13:40:15.410Z,100616.13
2023-05-20T13:42:42.056Z,100619.38
2023-05-20T13:45:10.369Z,100616.16
2023-05-20T13:47:37.123Z,100608.47
2023-05-20T13:50:04.187Z,100611.97
2023-05-20T13:52:30.898Z,100608.97
2023-05-20T13:54:57.543Z,100605.03
2023-05-20T13:57:24.274Z,100615.59
2023-05-20T13:59:50.945Z,100607.19
2023-05-20T14:02:18.075Z,100600.34
2023-05-20T14:04:46.986Z,100601.81
2023-05-20T14:07:14.301Z,100606.41
2023-05-20T14:09:41.326Z,100603.34
2023-05-20T14:12:08.105Z,100607.41
2023-05-20T14:14:36.037Z,100591.16
2023-05-20T14:17:02.750Z,100595.00
2023-05-20T14:19:30.113Z,100576.47
2023-05-20T14:21:58.907Z,100575.28
2023-05-20T14:24:25.605Z,100575.44
2023-05-20T14:26:52.271Z,100572.19
2023-05-20T14:29:19.524Z,100569.22
2023-05-20T14:31:47.636Z,100571.38
2023-05-20T14:34:15.756Z,100568.06
2023-05-20T14:36:42.690Z,100567.94
2023-05-20T14:39:09.814Z,100567.56
2023-05-20T14:41:36.670Z,100552.84
2023-05-20T14:44:03.381Z,100564.03
2023-05-20T14:46:30.614Z,100549.03
2023-05-20T14:48:57.289Z,100544.34
2023-05-20T14:51:23.944Z,100556.84
2023-05-20T14:53:50.722Z,100545.69
2023-05-20T14:56:18.355Z,100537.34
2023-05-20T14:58:45.660Z,100546.09
2023-05-20T15:01:12.491Z,100531.44
2023-05-20T15:03:39.336Z,100534.34
2023-05-20T15:06:06.224Z,100531.38
2023-05-20T15:08:34.220Z,100529.97
2023-05-20T15:11:01.260Z,100525.91
2023-05-20T15:13:29.162Z,100528.69
2023-05-20T15:15:57.136Z,100526.81
2023-05-20T15:18:23.873Z,100522.91
2023-05-20T15:20:51.808Z,100530.16
2023-05-20T15:23:18.714Z,100520.63
2023-05-20T15:25:45.421Z,100521.47
2023-05-20T15:28:12.073Z,100502.50
2023-05-20T15:30:38.768Z,100514.81
2023-05-20T15:33:06.856Z,100519.59
2023-05-20T15:35:33.583Z,100515.88
2023-05-20T15:38:01.412Z,100512.78
2023-05-20T15:40:28.268Z,100503.69
2023-05-20T15:42:55.038Z,100508.09
2023-05-20T15:45:21.788Z,100513.66
2023-05-20T15:47:48.619Z,100500.13
2023-05-20T15:50:15.375Z,100508.56
2023-05-20T15:52:42.114Z,100504.94
2023-05-20T15:55:11.169Z,100505.66
2023-05-20T15:57:39.602Z,100502.38
2023-05-20T16:00:11.712Z,100502.13
2023-05-20T16:02:40.396Z,100500.13
2023-05-20T16:05:07.506Z,100492.91
2023-05-20T16:07:34.177Z,100500.88
2023-05-20T16:10:00.863Z,100487.66
2023-05-20T16:12:28.721Z,100484.81
2023-05-20T16:14:55.702Z,100482.44
2023-05-20T16:17:22.469Z,100481.28
2023-05-20T16:19:49.604Z,100484.97
2023-05-20T16:22:17.956Z,100480.94
2023-05-20T16:24:45.997Z,100480.72
2023-05-20T16:27:12.675Z,100481.50
2023-05-20T16:29:39.976Z,100483.94
2023-05-20T16:32:07.218Z,100479.53
2023-05-20T16:34:34.083Z,100476.00
2023-05-20T16:37:00.905Z,100470.50
2023-05-20T16:39:27.685Z,100472.94
2023-05-20T16:41:54.404Z,100462.69
2023-05-20T16:44:21.120Z,100464.75
2023-05-20T16:46:47.753Z,100459.66
2023-05-20T16:49:15.932Z,100452.47
2023-05-20T16:51:42.575Z,100451.69
2023-05-20T16:54:09.332Z,100452.44
2023-05-20T16:56:37.219Z,100444.88
2023-05-20T16:59:03.955Z,100448.03
2023-05-20T17:01:30.752Z,100447.13
2023-05-20T17:03:57.507Z,100451.25
2023-05-20T17:06:24.696Z,100447.84
2023-05-20T17:08:51.461Z,100453.97
2023-05-20T17:11:18.146Z,100452.94
2023-05-20T17:13:44.791Z,100452.75
2023-05-20T17:16:12.199Z,100468.63
2023-05-20T17:18:38.999Z,100465.84
2023-05-20T17:21:06.014Z,100469.94
2023-05-20T17:23:32.684Z,100465.66
2023-05-20T17:25:59.392Z,100467.72
2023-05-20T17:28:27.493Z,100465.69
2023-05-20T17:30:54.154Z,100468.31
2023-05-20T17:33:22.458Z,100465.00
2023-05-20T17:35:49.174Z,100466.91
2023-05-20T17:38:16.113Z,100470.78
2023-05-20T17:40:42.795Z,100473.84
2023-05-20T17:43:09.480Z,100474.88
2023-05-20T17:45:36.253Z,100479.56
2023-05-20T17:48:08.769Z,100474.78
2023-05-20T17:50:38.737Z,100479.38
2023-05-20T17:53:05.467Z,100476.44
2023-05-20T17:55:32.945Z,100474.28
2023-05-20T17:58:01.854Z,100479.13
2023-05-20T18:00:28.860Z,100481.75
2023-05-20T18:02:58.297Z,100476.59
2023-05-20T18:05:25.074Z,100484.25
2023-05-20T18:07:53.363Z,100492.06
2023-05-20T18:10:21.366Z,100487.09
2023-05-20T18:12:48.090Z,100487.91
2023-05-20T18:15:16.956Z,100485.19
2023-05-20T18:17:44.956Z,100488.72
2023-05-20T18:20:13.280Z,100481.56
2023-05-20T18:22:45.199Z,100482.22
2023-05-20T18:25:15.486Z,100484.28
2023-05-20T18:27:42.860Z,100485.81
2023-05-20T18:30:10.441Z,100479.31
2023-05-20T18:32:38.504Z,100487.09
2023-05-20T18:35:05.574Z,100486.16
2023-05-20T18:37:33.077Z,100487.50
2023-05-20T18:40:01.098Z,100489.69
2023-05-20T18:42:29.092Z,100485.78
2023-05-20T18:44:55.793Z,100492.19
2023-05-20T18:47:22.681Z,100494.94
2023-05-20T18:49:49.376Z,100492.34
2023-05-20T18:52:16.345Z,100504.75
2023-05-20T18:54:43.014Z,100501.53
2023-05-20T18:57:10.397Z,100493.69
2023-05-20T18:59:38.292Z,100502.44
2023-05-20T19:02:05.264Z,100499.91
2023-05-20T19:04:31.961Z,100497.41
2023-05-20T19:06:59.239Z,100509.44
2023-05-20T19:09:26.075Z,100509.44
2023-05-20T19:11:56.705Z,100508.31
2023-05-20T19:14:24.473Z,100498.59
2023-05-20T19:16:52.803Z,100502.28
2023-05-20T19:19:20.864Z,100504.16
2023-05-20T19:21:48.890Z,100503.06
2023-05-20T19:24:17.841Z,100503.53
2023-05-20T19:26:44.593Z,100503.09
2023-05-20T19:29:11.896Z,100518.50
2023-05-20T19:31:41.494Z,100519.78
2023-05-20T19:34:08.167Z,100513.94
2023-05-20T19:36:36.182Z,100525.41
2023-05-20T19:39:02.831Z,100526.31
2023-05-20T19:41:29.563Z,100524.00
2023-05-20T19:43:56.245Z,100543.31
2023-05-20T19:46:23.042Z,100539.69
2023-05-20T19:48:49.751Z,100532.91
2023-05-20T19:51:16.495Z,100543.66
2023-05-20T19:53:43.151Z,100544.75
2023-05-20T19:56:09.956Z,100535.78
2023-05-20T19:58:37.217Z,100545.56
2023-05-20T20:01:04.846Z,100539.78
2023-05-20T20:03:31.646Z,100544.22
2023-05-20T20:05:58.383Z,100548.25
2023-05-20T20:08:25.106Z,100543.16
2023-05-20T20:10:53.189Z,100543.00
2023-05-20T20:13:19.823Z,100540.34
2023-05-20T20:15:46.940Z,100550.41
2023-05-20T20:18:13.642Z,100545.09
2023-05-20T20:20:40.701Z,100557.63
2023-05-20T20:23:09.470Z,100558.00
2023-05-20T20:25:39.983Z,100562.28
2023-05-20T20:28:08.124Z,100554.88
2023-05-20T20:30:36.100Z,100563.97
2023-05-20T20:33:06.469Z,100566.72
2023-05-20T20:35:34.306Z,100569.03
2023-05-20T20:38:01.512Z,100567.13
2023-05-20T20:40:28.493Z,100571.47
2023-05-20T20:42:58.429Z,100560.47
2023-05-20T20:45:26.481Z,100571.19
2023-05-20T20:47:54.757Z,100575.06
2023-05-20T20:50:23.023Z,100570.88
2023-05-20T20:52:49.679Z,100572.66
2023-05-20T20:55:17.986Z,100580.78
2023-05-20T20:57:46.563Z,100581.94
2023-05-20T21:00:17.641Z,100575.50
2023-05-20T21:02:44.469Z,100572.13
2023-05-20T21:05:11.216Z,100577.25
2023-05-20T21:07:39.201Z,100574.47
2023-05-20T21:10:09.643Z,100571.59
2023-05-20T21:12:37.505Z,100577.38
2023-05-20T21:15:05.772Z,100577.69
2023-05-20T21:17:33.812Z,100578.34
2023-05-20T21:20:00.472Z,100576.56
2023-05-20T21:22:28.338Z,100570.88
2023-05-20T21:24:56.324Z,100569.94
2023-05-20T21:27:22.965Z,100574.44
2023-05-20T21:29:51.974Z,100576.81
2023-05-20T21:32:18.800Z,100579.19
2023-05-20T21:34:45.850Z,100578.88
2023-05-20T21:37:13.783Z,100577.75
2023-05-20T21:39:41.653Z,100582.56
2023-05-20T21:42:09.936Z,100586.72
2023-05-20T21:44:36.594Z,100579.88
2023-05-20T21:47:04.472Z,100582.19
2023-05-20T21:49:31.169Z,100572.50
2023-05-20T21:51:57.805Z,100576.72
2023-05-20T21:54:25.868Z,100586.34
2023-05-20T21:56:53.077Z,100580.75
2023-05-20T21:59:19.766Z,100583.44
2023-05-20T22:01:46.525Z,100572.56
2023-05-20T22:04:13.334Z,100575.41
2023-05-20T22:06:41.393Z,100580.06
2023-05-20T22:09:08.041Z,100573.59
2023-05-20T22:11:34.672Z,100575.63
2023-05-20T22:14:02.796Z,100570.31
2023-05-20T22:16:30.190Z,100576.69
2023-05-20T22:18:58.594Z,100569.09
2023-05-20T22:21:25.746Z,100567.19
2023-05-20T22:23:54.183Z,100565.56
2023-05-20T22:26:20.955Z,100570.16
2023-05-20T22:28:47.675Z,100566.78
2023-05-20T22:31:14.347Z,100560.84
2023-05-20T22:33:41.552Z,100563.19
2023-05-20T22:36:10.703Z,100549.63
2023-05-20T22:38:38.909Z,100559.06
2023-05-20T22:41:05.690Z,100565.25
2023-05-20T22:43:33.533Z,100561.41
2023-05-20T22:46:00.273Z,100562.94
2023-05-20T22:48:26.973Z,100558.88
2023-05-20T22:50:54.211Z,100560.19
2023-05-20T22:53:20.918Z,100554.72
2023-05-20T22:55:47.982Z,100556.94
2023-05-20T22:58:16.984Z,100557.75
2023-05-20T23:00:44.587Z,100558.06
2023-05-20T23:03:12.166Z,100557.34
2023-05-20T23:05:38.981Z,100557.75
2023-05-20T23:08:05.693Z,100558.97
2023-05-20T23:10:32.413Z,100550.28
2023-05-20T23:12:59.042Z,100552.31
2023-05-20T23:15:25.822Z,100545.00
2023-05-20T23:17:53.835Z,100542.81
2023-05-20T23:20:22.293Z,100542.59
2023-05-20T23:22:50.311Z,100546.69
2023-05-20T23:25:18.359Z,100542.41
2023-05-20T23:27:45.024Z,100546.25
2023-05-20T23:30:13.175Z,100542.81
2023-05-20T23:32:39.979Z,100541.19
2023-05-20T23:35:07.365Z,100534.72
2023-05-20T23:37:34.582Z,100533.91
2023-05-20T23:40:01.330Z,100535.72
2023-05-20T23:42:28.108Z,100536.53
2023-05-20T23:44:54.762Z,100537.06
2023-05-20T23:47:22.738Z,100531.38
2023-05-20T23:49:49.607Z,100532.63
2023-05-20T23:52:16.358Z,100530.66
2023-05-20T23:54:43.054Z,100519.31
2023-05-20T23:57:11.729Z,100523.38
2023-05-20T23:59:38.885Z,100525.88
